Pagrindinis puslapis
METAR-TAF:

METAR-TAF

Oro uostai :

Mesotas, Tailandas

platuma: 16-40N, ilguma: 098-33E, Aukštis: 196 m

Dabartinis oras

Ataskaita buvo paskelbta 43 minutes, ne 23:00 UTC
Ramus vėjas
Temperatūra 20°C
Drėgmė 83%
Slėgis 1015 hPa
Matomumas: 4000 m
rūkana

METAR: VTPM 192300Z 00000KT 4000 BR NSC 20/17 Q1015 NOSIG

Laikas: 06:43 (23:43 UTC)

Prognozė

Ataskaita buvo paskelbta 6 valandos ir 43 minutes, ne 17:00 UTC
Prognozė galioja nuo 19 metu 18 UTC su 20 metu 18 UTC
Vėjas 5 kt iš Pietvakarių
Matomumas: 9000 m
Mažai debesys ne aukštis 2500 ft
Tapsmas
nuo 19 metu 21 UTC su 19 metu 23 UTC
Matomumas: 4000 m
rūkana
Tapsmas
nuo 20 metu 01 UTC su 20 metu 03 UTC
Matomumas: 8000 m
Mažai debesys ne aukštis 2500 ft

TAF: VTPM 191700Z 1918/2018 22005KT 9000 FEW025 BECMG 1921/1923 4000 BR NSC BECMG 2001/2003 8000 NSW FEW025

Orai ataskaitas ir orų prognozės (METAR, TAF).

turimą stotys yra geltonos ir raudonos taškus žemėlapyje.

Perkelti pele per norėdami pamatyti stoties vardą.

Tada spustelėkite, norėdami matyti oro stebėjimo ir prognozės.

Norėdami pakeisti žemėlapį: spustelėkite ant žalios mygtukų su juodo kryžiaus žemyn,; žalią mygtuką su brūkšneliu, jei norite nutolinti; arba žalių rodyklių gretimoms žemėlapius.


METAR-TAF: